Time;durP1;ratioP1;P1;durP2;ratioP2;P2;SDS_P1;SDS_P2;PMS_P1;PMS_P2;Temp;Humidity;BMP_temperature;BMP_pressure;BME280_temperature;BME280_humidity;BME280_pressure;Samples;Min_cycle;Max_cycle;Signal;HPM_P1;HPM_P2
2021/07/28 00:01:52;;;;;;;12.43;5.53;;;;;;;;;;5001440;28;20038;-51
2021/07/28 00:04:18;;;;;;;11.32;5.90;;;;;;;;;;5001075;28;20057;-49
2021/07/28 00:06:45;;;;;;;12.25;6.00;;;;;;;;;;4985670;28;20034;-51
2021/07/28 00:09:12;;;;;;;11.48;5.70;;;;;;;;;;5004212;28;20088;-53
2021/07/28 00:11:39;;;;;;;14.88;5.68;;;;;;;;;;5023305;28;20046;-52
2021/07/28 00:14:06;;;;;;;11.07;6.00;;;;;;;;;;5018258;28;20049;-53
2021/07/28 00:16:35;;;;;;;9.85;5.50;;;;;;;;;;4987612;28;20260;-53
2021/07/28 00:19:06;;;;;;;11.80;5.65;;;;;;;;;;4989056;28;20054;-50
2021/07/28 00:24:18;;;;;;;11.23;5.60;;;;;;;;;;4997343;28;20042;-50
2021/07/28 00:26:50;;;;;;;12.57;5.93;;;;;;;;;;5002409;28;20053;-50
2021/07/28 00:29:17;;;;;;;11.68;6.10;;;;;;;;;;5000241;28;20053;-49
2021/07/28 00:31:43;;;;;;;11.18;6.35;;;;;;;;;;5023346;28;20046;-53
2021/07/28 00:34:09;;;;;;;10.50;5.85;;;;;;;;;;5002111;28;20108;-52
2021/07/28 00:36:37;;;;;;;10.65;5.63;;;;;;;;;;5005341;28;20127;-53
2021/07/28 00:39:04;;;;;;;15.40;6.43;;;;;;;;;;5002437;28;20034;-51
2021/07/28 00:41:30;;;;;;;12.35;6.15;;;;;;;;;;5005434;28;20267;-48
2021/07/28 00:43:58;;;;;;;13.05;6.07;;;;;;;;;;5004034;28;20057;-49
2021/07/28 00:46:25;;;;;;;11.23;6.70;;;;;;;;;;5006800;28;20060;-50
2021/07/28 00:48:51;;;;;;;14.05;6.35;;;;;;;;;;5001990;28;20045;-52
2021/07/28 00:51:18;;;;;;;13.30;6.32;;;;;;;;;;5000960;28;20057;-53
2021/07/28 00:53:44;;;;;;;12.88;6.97;;;;;;;;;;5000997;28;20057;-51
2021/07/28 00:56:11;;;;;;;17.30;7.55;;;;;;;;;;4999097;28;20052;-50
2021/07/28 00:58:38;;;;;;;15.13;6.57;;;;;;;;;;5000475;28;20045;-48
2021/07/28 01:01:05;;;;;;;12.68;6.53;;;;;;;;;;5001289;28;20045;-51
2021/07/28 01:03:32;;;;;;;14.60;7.03;;;;;;;;;;5022946;28;20045;-53
2021/07/28 01:05:59;;;;;;;13.07;6.63;;;;;;;;;;5000220;28;20041;-51
2021/07/28 01:08:28;;;;;;;13.77;7.10;;;;;;;;;;5004639;28;20053;-53
2021/07/28 01:10:55;;;;;;;12.55;7.32;;;;;;;;;;5015333;28;20042;-52
2021/07/28 01:13:26;;;;;;;13.77;6.88;;;;;;;;;;5022649;28;20061;-53
2021/07/28 01:15:55;;;;;;;14.02;6.78;;;;;;;;;;5001439;28;20049;-51
2021/07/28 01:18:23;;;;;;;12.48;6.50;;;;;;;;;;5002787;28;20037;-52
2021/07/28 01:20:49;;;;;;;13.90;6.80;;;;;;;;;;5000185;28;20122;-52
2021/07/28 01:23:21;;;;;;;13.82;7.28;;;;;;;;;;5003932;28;20049;-49
2021/07/28 01:25:48;;;;;;;17.95;7.35;;;;;;;;;;5000541;28;20041;-51
2021/07/28 01:28:15;;;;;;;14.57;7.00;;;;;;;;;;5023161;28;20046;-51
2021/07/28 01:30:41;;;;;;;13.73;6.32;;;;;;;;;;5003344;28;20030;-52
2021/07/28 01:33:08;;;;;;;11.38;6.18;;;;;;;;;;5006846;28;20045;-50
2021/07/28 01:35:35;;;;;;;12.13;6.35;;;;;;;;;;5024424;28;20057;-52
2021/07/28 01:38:02;;;;;;;11.55;5.93;;;;;;;;;;5002188;28;20064;-50
2021/07/28 01:40:30;;;;;;;11.15;6.28;;;;;;;;;;5002499;28;20038;-50
2021/07/28 01:42:56;;;;;;;13.48;6.53;;;;;;;;;;5003887;28;20041;-51
2021/07/28 01:45:23;;;;;;;12.10;6.80;;;;;;;;;;5008594;28;20034;-51
2021/07/28 01:47:50;;;;;;;10.82;5.88;;;;;;;;;;5019187;28;20045;-53
2021/07/28 01:50:16;;;;;;;14.68;6.00;;;;;;;;;;5006358;28;20041;-51
2021/07/28 01:52:43;;;;;;;16.92;5.78;;;;;;;;;;5003731;28;20038;-53
2021/07/28 01:55:10;;;;;;;11.63;6.32;;;;;;;;;;5007215;28;20045;-51
2021/07/28 01:57:37;;;;;;;15.43;6.00;;;;;;;;;;5000226;28;20057;-49
2021/07/28 02:00:05;;;;;;;13.37;6.50;;;;;;;;;;5002350;28;20042;-48
2021/07/28 02:02:32;;;;;;;12.00;6.10;;;;;;;;;;4999430;28;20065;-49
2021/07/28 02:04:59;;;;;;;11.15;5.80;;;;;;;;;;5003753;28;20053;-52
2021/07/28 02:07:26;;;;;;;14.25;5.75;;;;;;;;;;5001655;28;20060;-51
2021/07/28 02:09:53;;;;;;;14.93;6.38;;;;;;;;;;5001894;28;20054;-52
2021/07/28 02:12:19;;;;;;;15.30;6.45;;;;;;;;;;4986369;28;20050;-51
2021/07/28 02:14:47;;;;;;;12.02;5.75;;;;;;;;;;5007141;28;20042;-47
2021/07/28 02:17:13;;;;;;;18.03;6.30;;;;;;;;;;5006497;28;20029;-51
2021/07/28 02:19:40;;;;;;;12.20;6.03;;;;;;;;;;5024796;28;20283;-49
2021/07/28 02:22:06;;;;;;;13.85;6.00;;;;;;;;;;5026654;28;20045;-51
2021/07/28 02:24:33;;;;;;;13.90;6.68;;;;;;;;;;4999076;28;20057;-52
2021/07/28 02:27:00;;;;;;;16.95;6.10;;;;;;;;;;5004244;28;20081;-53
2021/07/28 02:29:27;;;;;;;13.27;6.00;;;;;;;;;;5002034;28;20042;-51
2021/07/28 02:31:55;;;;;;;14.07;6.57;;;;;;;;;;4986909;28;20108;-54
2021/07/28 02:34:21;;;;;;;16.38;6.82;;;;;;;;;;4986712;28;20053;-51
2021/07/28 02:36:48;;;;;;;17.65;6.15;;;;;;;;;;5005062;28;20029;-49
2021/07/28 02:39:14;;;;;;;16.10;6.45;;;;;;;;;;5000297;28;20103;-46
2021/07/28 02:41:41;;;;;;;10.40;5.40;;;;;;;;;;5004586;28;20056;-52
2021/07/28 02:44:07;;;;;;;11.00;5.70;;;;;;;;;;4995419;28;20310;-51
2021/07/28 02:46:34;;;;;;;11.82;6.20;;;;;;;;;;5004891;28;20042;-51
2021/07/28 02:49:01;;;;;;;11.95;5.95;;;;;;;;;;5019218;28;20108;-50
2021/07/28 02:51:28;;;;;;;12.97;6.00;;;;;;;;;;5004562;28;20037;-52
2021/07/28 02:53:54;;;;;;;13.95;6.72;;;;;;;;;;4992191;28;20286;-51
2021/07/28 02:56:21;;;;;;;13.35;5.82;;;;;;;;;;5007048;28;20096;-52
2021/07/28 02:58:47;;;;;;;13.02;5.78;;;;;;;;;;5004803;28;20045;-51
2021/07/28 03:01:14;;;;;;;11.50;6.18;;;;;;;;;;5000815;28;20038;-51
2021/07/28 03:03:40;;;;;;;11.45;5.80;;;;;;;;;;5024740;28;20092;-51
2021/07/28 03:06:09;;;;;;;11.75;6.22;;;;;;;;;;4999461;28;20082;-52
2021/07/28 03:08:35;;;;;;;15.07;6.47;;;;;;;;;;5003376;28;20128;-48
2021/07/28 03:11:01;;;;;;;12.55;6.45;;;;;;;;;;4999915;28;20049;-50
2021/07/28 03:13:28;;;;;;;17.08;6.75;;;;;;;;;;5002622;28;20054;-51
2021/07/28 03:16:05;;;;;;;15.93;6.38;;;;;;;;;;5000024;28;20046;-52
2021/07/28 03:18:31;;;;;;;13.50;7.07;;;;;;;;;;5003075;28;20042;-50
2021/07/28 03:20:57;;;;;;;13.60;6.65;;;;;;;;;;4993711;28;20057;-51
2021/07/28 03:23:25;;;;;;;14.35;7.15;;;;;;;;;;4988118;28;20045;-52
2021/07/28 03:25:52;;;;;;;13.83;6.73;;;;;;;;;;4991482;28;20042;-50
2021/07/28 03:28:18;;;;;;;13.02;6.15;;;;;;;;;;5005855;28;20042;-50
2021/07/28 03:30:44;;;;;;;14.63;7.25;;;;;;;;;;4999262;28;20038;-51
2021/07/28 03:33:11;;;;;;;22.35;8.25;;;;;;;;;;5003291;28;20038;-48
2021/07/28 03:35:39;;;;;;;13.35;6.38;;;;;;;;;;5012967;28;20150;-50
2021/07/28 03:38:05;;;;;;;10.43;6.22;;;;;;;;;;5004438;28;20045;-51
2021/07/28 03:40:33;;;;;;;12.45;5.82;;;;;;;;;;5004067;28;20041;-49
2021/07/28 03:42:59;;;;;;;14.20;5.87;;;;;;;;;;4990012;28;20042;-51
2021/07/28 03:45:26;;;;;;;11.48;5.15;;;;;;;;;;5006522;28;20041;-50
2021/07/28 03:47:53;;;;;;;13.23;4.93;;;;;;;;;;5003258;28;20049;-50
2021/07/28 03:50:19;;;;;;;12.15;5.15;;;;;;;;;;5005264;28;20052;-52
2021/07/28 03:52:47;;;;;;;10.73;4.70;;;;;;;;;;4999858;28;20039;-49
2021/07/28 03:55:13;;;;;;;12.25;5.40;;;;;;;;;;4988997;28;20052;-46
2021/07/28 03:57:42;;;;;;;13.15;4.95;;;;;;;;;;4997950;28;20044;-50
2021/07/28 04:00:08;;;;;;;10.13;4.95;;;;;;;;;;5006099;28;20038;-49
2021/07/28 04:02:35;;;;;;;13.93;5.30;;;;;;;;;;4997681;28;20057;-50
2021/07/28 04:05:02;;;;;;;13.07;5.25;;;;;;;;;;5003138;28;20053;-48
2021/07/28 04:07:29;;;;;;;12.52;5.55;;;;;;;;;;5006776;28;20042;-50
2021/07/28 04:09:55;;;;;;;9.98;5.00;;;;;;;;;;5005299;28;20056;-50
2021/07/28 04:12:21;;;;;;;14.02;5.40;;;;;;;;;;5002479;28;20091;-48
2021/07/28 04:14:49;;;;;;;19.83;6.30;;;;;;;;;;5021496;28;20049;-50
2021/07/28 04:17:17;;;;;;;15.00;5.78;;;;;;;;;;5002371;28;20108;-47
2021/07/28 04:19:48;;;;;;;12.25;6.07;;;;;;;;;;5004154;28;20034;-48
2021/07/28 04:22:17;;;;;;;12.80;6.00;;;;;;;;;;5001293;28;20048;-51
2021/07/28 04:24:44;;;;;;;15.55;6.78;;;;;;;;;;5004570;28;20048;-50
2021/07/28 04:27:13;;;;;;;14.85;6.50;;;;;;;;;;5022572;28;20034;-51
2021/07/28 04:29:39;;;;;;;12.93;6.25;;;;;;;;;;4993704;28;20069;-49
2021/07/28 04:32:10;;;;;;;15.57;6.35;;;;;;;;;;5003634;28;20046;-49
2021/07/28 04:34:37;;;;;;;21.05;6.53;;;;;;;;;;4999423;28;20038;-51
2021/07/28 04:37:03;;;;;;;16.30;6.65;;;;;;;;;;5003357;28;20038;-51
2021/07/28 04:39:35;;;;;;;17.08;6.30;;;;;;;;;;5001209;28;20049;-47
2021/07/28 04:42:02;;;;;;;12.88;6.00;;;;;;;;;;5020726;28;20033;-50
2021/07/28 04:44:28;;;;;;;16.15;6.47;;;;;;;;;;4996567;28;20058;-52
2021/07/28 04:46:55;;;;;;;11.75;6.07;;;;;;;;;;5001507;28;20052;-50
2021/07/28 04:49:23;;;;;;;12.80;6.43;;;;;;;;;;5009848;28;20034;-47
2021/07/28 04:51:49;;;;;;;14.95;6.25;;;;;;;;;;5004708;28;20042;-49
2021/07/28 04:54:16;;;;;;;12.18;6.30;;;;;;;;;;5020797;28;20052;-50
2021/07/28 04:56:43;;;;;;;16.50;6.38;;;;;;;;;;5004975;28;20550;-49
2021/07/28 04:59:10;;;;;;;12.57;6.10;;;;;;;;;;5002286;28;20136;-51
2021/07/28 05:01:36;;;;;;;14.73;6.32;;;;;;;;;;5021762;28;20053;-50
2021/07/28 05:04:03;;;;;;;12.15;5.78;;;;;;;;;;5001506;28;20033;-51
2021/07/28 05:06:32;;;;;;;14.35;6.60;;;;;;;;;;5002219;28;20123;-50
2021/07/28 05:08:59;;;;;;;13.57;6.90;;;;;;;;;;4998241;28;20054;-52
2021/07/28 05:11:25;;;;;;;13.20;7.13;;;;;;;;;;5000743;28;20074;-51
2021/07/28 05:13:51;;;;;;;22.65;10.30;;;;;;;;;;4998857;28;20046;-50
2021/07/28 05:16:18;;;;;;;13.25;7.13;;;;;;;;;;4999732;28;20053;-51
2021/07/28 05:18:44;;;;;;;13.57;6.75;;;;;;;;;;5010462;28;20057;-45
2021/07/28 05:21:11;;;;;;;13.38;6.72;;;;;;;;;;4994779;28;20034;-52
2021/07/28 05:23:39;;;;;;;17.80;7.43;;;;;;;;;;5015060;28;20041;-50
2021/07/28 05:26:05;;;;;;;14.37;6.77;;;;;;;;;;4995791;28;20045;-46
2021/07/28 05:28:32;;;;;;;13.20;6.78;;;;;;;;;;5000416;28;20283;-46
2021/07/28 05:30:58;;;;;;;16.77;6.97;;;;;;;;;;4997800;28;20116;-48
2021/07/28 05:33:25;;;;;;;16.48;7.30;;;;;;;;;;5000737;28;20029;-51
2021/07/28 05:35:51;;;;;;;10.88;6.05;;;;;;;;;;4992912;28;20077;-47
2021/07/28 05:38:18;;;;;;;15.40;7.07;;;;;;;;;;5015067;28;20140;-51
2021/07/28 05:40:46;;;;;;;13.02;6.63;;;;;;;;;;4994773;28;20123;-49
2021/07/28 05:43:12;;;;;;;15.68;7.45;;;;;;;;;;4999235;28;20029;-50
2021/07/28 05:45:39;;;;;;;19.13;7.63;;;;;;;;;;5013925;28;20065;-51
2021/07/28 05:48:06;;;;;;;16.27;7.97;;;;;;;;;;4987532;28;20063;-50
2021/07/28 05:50:32;;;;;;;16.60;7.75;;;;;;;;;;4983048;28;20060;-48
2021/07/28 05:52:58;;;;;;;13.32;7.20;;;;;;;;;;5012401;28;20062;-50
2021/07/28 05:55:25;;;;;;;15.40;8.25;;;;;;;;;;5015426;28;20045;-51
2021/07/28 05:57:54;;;;;;;19.98;8.77;;;;;;;;;;5011002;28;20074;-51
2021/07/28 06:00:21;;;;;;;17.95;8.73;;;;;;;;;;4998049;28;20041;-51
2021/07/28 06:02:48;;;;;;;15.40;8.70;;;;;;;;;;5012695;28;20060;-48
2021/07/28 06:05:15;;;;;;;19.35;9.55;;;;;;;;;;4998011;28;20103;-51
2021/07/28 06:07:41;;;;;;;22.55;9.75;;;;;;;;;;4990262;28;20105;-50
2021/07/28 06:10:08;;;;;;;23.83;10.07;;;;;;;;;;4993613;28;20046;-51
2021/07/28 06:12:34;;;;;;;17.42;9.90;;;;;;;;;;4993523;28;20136;-50
2021/07/28 06:15:03;;;;;;;21.20;9.75;;;;;;;;;;5000154;28;20084;-49
2021/07/28 06:17:29;;;;;;;16.92;8.40;;;;;;;;;;4990492;28;20125;-50
2021/07/28 06:19:56;;;;;;;20.80;9.52;;;;;;;;;;4984464;28;20039;-48
2021/07/28 06:22:22;;;;;;;16.00;9.02;;;;;;;;;;5001073;28;20046;-51
2021/07/28 06:24:50;;;;;;;23.08;10.13;;;;;;;;;;5003496;28;20057;-50
2021/07/28 06:27:17;;;;;;;18.98;9.35;;;;;;;;;;5000655;28;20063;-49
2021/07/28 06:29:43;;;;;;;18.90;9.90;;;;;;;;;;5003296;28;20042;-47
2021/07/28 06:32:11;;;;;;;18.00;9.57;;;;;;;;;;5001740;28;20042;-45
2021/07/28 06:34:38;;;;;;;17.27;9.47;;;;;;;;;;4982905;28;20043;-50
2021/07/28 06:37:08;;;;;;;20.98;10.40;;;;;;;;;;4984513;28;20280;-48
2021/07/28 06:39:34;;;;;;;20.33;10.75;;;;;;;;;;4981660;28;20046;-49
2021/07/28 06:42:01;;;;;;;20.60;11.00;;;;;;;;;;4982400;28;20066;-51
2021/07/28 06:44:27;;;;;;;24.35;11.93;;;;;;;;;;4995567;28;20039;-50
2021/07/28 06:46:54;;;;;;;19.10;9.52;;;;;;;;;;5019691;28;20061;-47
2021/07/28 06:49:22;;;;;;;22.77;9.75;;;;;;;;;;4987732;28;20035;-46
2021/07/28 06:51:48;;;;;;;20.80;10.75;;;;;;;;;;4984440;28;20039;-52
2021/07/28 06:54:16;;;;;;;19.20;10.05;;;;;;;;;;4979925;28;20042;-48
2021/07/28 06:56:44;;;;;;;19.00;9.97;;;;;;;;;;4983665;28;20042;-49
2021/07/28 06:59:10;;;;;;;21.55;11.50;;;;;;;;;;4990466;28;20120;-50
2021/07/28 07:01:37;;;;;;;17.35;10.18;;;;;;;;;;5003944;28;20116;-50
2021/07/28 07:04:04;;;;;;;19.85;10.60;;;;;;;;;;4996243;28;20030;-49
2021/07/28 07:06:32;;;;;;;20.65;10.13;;;;;;;;;;4985132;28;20046;-50
2021/07/28 07:08:58;;;;;;;23.88;9.77;;;;;;;;;;5007465;28;20030;-49
2021/07/28 07:11:25;;;;;;;18.50;10.57;;;;;;;;;;4984995;28;20042;-51
2021/07/28 07:13:51;;;;;;;20.10;9.65;;;;;;;;;;4997770;28;20043;-56
2021/07/28 07:16:17;;;;;;;20.65;9.70;;;;;;;;;;5003537;28;20131;-52
2021/07/28 07:18:44;;;;;;;14.90;9.38;;;;;;;;;;5002132;28;20041;-51
2021/07/28 07:21:10;;;;;;;16.23;9.40;;;;;;;;;;4982851;28;20170;-49
2021/07/28 07:23:38;;;;;;;17.67;9.35;;;;;;;;;;4983645;28;20057;-51
2021/07/28 07:26:05;;;;;;;18.55;9.98;;;;;;;;;;4995105;28;20116;-51
2021/07/28 07:28:33;;;;;;;15.65;8.90;;;;;;;;;;5002827;28;20119;-50
2021/07/28 07:31:00;;;;;;;16.60;7.82;;;;;;;;;;4997814;28;20049;-52
2021/07/28 07:33:39;;;;;;;16.33;7.30;;;;;;;;;;5002533;28;20116;-53
2021/07/28 07:36:06;;;;;;;18.23;7.88;;;;;;;;;;4996790;28;20062;-50
2021/07/28 07:38:33;;;;;;;13.70;7.75;;;;;;;;;;5005597;28;20128;-53
2021/07/28 07:41:00;;;;;;;12.07;6.57;;;;;;;;;;4988407;28;20034;-53
2021/07/28 07:43:27;;;;;;;16.67;7.35;;;;;;;;;;4983515;28;20133;-51
2021/07/28 07:45:55;;;;;;;12.00;6.68;;;;;;;;;;4979032;28;20050;-52
2021/07/28 07:48:22;;;;;;;26.45;7.47;;;;;;;;;;4981133;28;20038;-52
2021/07/28 07:50:48;;;;;;;13.30;5.90;;;;;;;;;;4984571;28;20080;-50
2021/07/28 07:53:15;;;;;;;11.93;5.00;;;;;;;;;;5001904;28;20046;-52
2021/07/28 07:55:44;;;;;;;9.65;5.18;;;;;;;;;;4999261;28;20066;-53
2021/07/28 07:58:12;;;;;;;14.88;6.05;;;;;;;;;;5001884;28;20042;-49
2021/07/28 08:00:38;;;;;;;10.57;4.97;;;;;;;;;;4997961;28;20042;-49
2021/07/28 08:03:05;;;;;;;11.20;5.78;;;;;;;;;;5000932;28;20302;-52
2021/07/28 08:05:32;;;;;;;13.75;5.80;;;;;;;;;;5003312;28;20038;-50
2021/07/28 08:07:59;;;;;;;11.05;5.75;;;;;;;;;;4998427;28;20045;-53
2021/07/28 08:10:25;;;;;;;10.70;5.20;;;;;;;;;;5000682;28;20057;-53
2021/07/28 08:12:52;;;;;;;11.40;5.25;;;;;;;;;;5013834;28;20041;-54
2021/07/28 08:15:20;;;;;;;7.35;4.22;;;;;;;;;;5020253;28;20046;-53
2021/07/28 08:17:46;;;;;;;7.60;4.60;;;;;;;;;;5000225;28;20046;-50
2021/07/28 08:20:13;;;;;;;9.95;5.07;;;;;;;;;;5005147;28;20052;-53
2021/07/28 08:22:39;;;;;;;9.32;4.93;;;;;;;;;;4990790;28;20041;-53
2021/07/28 08:25:11;;;;;;;12.88;4.28;;;;;;;;;;5003988;28;20052;-51
2021/07/28 08:27:38;;;;;;;10.63;4.82;;;;;;;;;;5001394;28;20052;-51
2021/07/28 08:30:05;;;;;;;15.68;4.47;;;;;;;;;;5005228;28;20040;-51
2021/07/28 08:32:32;;;;;;;27.77;13.65;;;;;;;;;;5002117;28;20037;-51
2021/07/28 08:35:00;;;;;;;19.48;9.80;;;;;;;;;;5023272;28;20041;-52
2021/07/28 08:37:27;;;;;;;15.07;5.63;;;;;;;;;;5000241;28;20037;-49
2021/07/28 08:39:54;;;;;;;10.77;4.78;;;;;;;;;;5005831;28;20053;-52
2021/07/28 08:42:20;;;;;;;8.93;4.53;;;;;;;;;;5003818;28;20050;-50
2021/07/28 08:44:47;;;;;;;9.35;4.53;;;;;;;;;;5005036;28;20034;-52
2021/07/28 08:47:14;;;;;;;9.80;3.90;;;;;;;;;;5003356;28;20042;-49
2021/07/28 08:49:42;;;;;;;13.25;4.05;;;;;;;;;;4996531;28;20160;-52
2021/07/28 08:52:09;;;;;;;7.47;3.60;;;;;;;;;;5001944;28;20075;-53
2021/07/28 08:54:35;;;;;;;10.57;3.60;;;;;;;;;;4997514;28;20046;-48
2021/07/28 08:57:02;;;;;;;11.32;3.28;;;;;;;;;;5003396;28;20165;-49
2021/07/28 08:59:29;;;;;;;6.97;2.80;;;;;;;;;;5000938;28;20045;-53
2021/07/28 09:01:56;;;;;;;8.45;3.13;;;;;;;;;;5003397;28;20034;-53
2021/07/28 09:04:23;;;;;;;6.55;3.00;;;;;;;;;;4997456;28;20131;-53
2021/07/28 09:06:53;;;;;;;9.13;3.50;;;;;;;;;;5000908;28;20088;-51
2021/07/28 09:09:20;;;;;;;11.50;3.50;;;;;;;;;;4989889;28;20152;-54
2021/07/28 09:11:56;;;;;;;7.63;3.40;;;;;;;;;;5001276;28;20108;-53
2021/07/28 09:14:25;;;;;;;7.97;2.90;;;;;;;;;;5012827;28;20120;-50
2021/07/28 09:17:12;;;;;;;13.52;3.33;;;;;;;;;;4991752;28;20045;-50
2021/07/28 09:19:40;;;;;;;10.35;2.67;;;;;;;;;;4988981;28;20037;-51
2021/07/28 09:22:07;;;;;;;;;;;;;;;;;;4981111;28;20051;-49
2021/07/28 09:24:35;;;;;;;12.93;2.60;;;;;;;;;;4982147;28;19933;-51
2021/07/28 09:27:02;;;;;;;6.57;2.28;;;;;;;;;;5017581;28;20050;-52
2021/07/28 09:29:29;;;;;;;6.63;2.33;;;;;;;;;;4996137;28;20042;-50
2021/07/28 09:31:56;;;;;;;8.27;2.25;;;;;;;;;;5000647;28;20042;-48
2021/07/28 09:34:38;;;;;;;6.40;2.47;;;;;;;;;;4996655;28;20038;-52
2021/07/28 09:37:07;;;;;;;11.73;2.80;;;;;;;;;;4993707;28;20049;-53
2021/07/28 09:39:36;;;;;;;5.18;2.08;;;;;;;;;;4994534;28;20046;-51
2021/07/28 09:42:07;;;;;;;5.65;2.30;;;;;;;;;;5001731;28;20046;-54
2021/07/28 09:44:35;;;;;;;8.18;2.40;;;;;;;;;;4983779;28;20034;-51
2021/07/28 09:47:07;;;;;;;6.93;2.25;;;;;;;;;;4996930;28;20106;-52
2021/07/28 09:49:34;;;;;;;6.60;2.45;;;;;;;;;;4982134;28;20030;-53
2021/07/28 09:52:15;;;;;;;6.70;2.20;;;;;;;;;;4983631;28;20047;-54
2021/07/28 09:54:43;;;;;;;7.47;2.50;;;;;;;;;;4982385;28;20043;-54
2021/07/28 09:57:14;;;;;;;18.25;2.67;;;;;;;;;;4991932;28;20038;-51
2021/07/28 09:59:43;;;;;;;8.43;2.20;;;;;;;;;;5004286;28;20069;-54
2021/07/28 10:02:11;;;;;;;5.53;2.05;;;;;;;;;;5000514;28;20046;-54
2021/07/28 10:04:37;;;;;;;6.65;2.00;;;;;;;;;;5003383;28;20046;-53
2021/07/28 10:07:06;;;;;;;10.05;2.25;;;;;;;;;;4999321;28;20049;-52
2021/07/28 10:09:34;;;;;;;6.78;1.90;;;;;;;;;;5005249;28;20056;-53
2021/07/28 10:12:05;;;;;;;7.80;1.67;;;;;;;;;;5016544;28;20128;-51
2021/07/28 10:14:32;;;;;;;7.38;2.03;;;;;;;;;;5004266;28;20046;-52
2021/07/28 10:16:59;;;;;;;7.18;2.00;;;;;;;;;;5000858;28;20042;-51
2021/07/28 10:19:26;;;;;;;8.82;2.00;;;;;;;;;;5003880;28;20054;-47
2021/07/28 10:21:53;;;;;;;5.45;2.30;;;;;;;;;;5002369;28;20031;-50
2021/07/28 10:24:19;;;;;;;4.20;1.95;;;;;;;;;;5003979;28;20042;-52
2021/07/28 10:26:48;;;;;;;7.85;1.67;;;;;;;;;;5001217;28;20045;-52
2021/07/28 10:29:16;;;;;;;5.35;1.80;;;;;;;;;;5003573;28;20047;-52
2021/07/28 10:31:44;;;;;;;4.60;1.48;;;;;;;;;;4998684;28;20038;-50
2021/07/28 10:34:20;;;;;;;7.32;1.83;;;;;;;;;;5005255;28;20046;-50
2021/07/28 10:36:47;;;;;;;14.45;2.78;;;;;;;;;;4998391;28;20078;-56
2021/07/28 10:39:33;;;;;;;11.57;2.20;;;;;;;;;;5002964;28;20042;-54
2021/07/28 10:42:00;;;;;;;10.13;2.10;;;;;;;;;;4997921;28;20106;-54
2021/07/28 10:44:27;;;;;;;8.05;2.13;;;;;;;;;;4987047;28;20055;-54
2021/07/28 10:47:13;;;;;;;23.03;4.20;;;;;;;;;;4982270;28;20057;-53
2021/07/28 10:49:48;;;;;;;7.28;1.92;;;;;;;;;;5000323;28;20359;-53
2021/07/28 10:52:33;;;;;;;7.72;2.00;;;;;;;;;;5002103;28;20046;-51
2021/07/28 10:55:16;;;;;;;3.60;1.63;;;;;;;;;;5001284;28;20042;-54
2021/07/28 10:58:04;;;;;;;3.40;1.40;;;;;;;;;;5016066;28;20042;-51
2021/07/28 11:00:46;;;;;;;7.50;1.77;;;;;;;;;;5017658;28;20034;-49
2021/07/28 11:03:14;;;;;;;9.93;2.53;;;;;;;;;;4995753;28;20046;-54
2021/07/28 11:05:42;;;;;;;8.93;2.38;;;;;;;;;;5004545;28;20042;-52
2021/07/28 11:08:09;;;;;;;9.93;1.90;;;;;;;;;;5019785;28;20046;-49
2021/07/28 11:10:36;;;;;;;5.95;1.92;;;;;;;;;;5005818;28;20034;-51
2021/07/28 11:13:05;;;;;;;12.45;2.17;;;;;;;;;;5021414;28;20037;-56
2021/07/28 11:15:32;;;;;;;4.13;1.73;;;;;;;;;;5003191;28;20078;-52
2021/07/28 11:17:58;;;;;;;5.63;1.70;;;;;;;;;;5005733;28;20042;-55
2021/07/28 11:20:28;;;;;;;22.13;2.28;;;;;;;;;;5002605;28;20053;-53
2021/07/28 11:23:14;;;;;;;5.40;1.73;;;;;;;;;;5007662;28;20049;-55
2021/07/28 11:25:42;;;;;;;3.53;1.67;;;;;;;;;;5019015;28;20049;-55
2021/07/28 11:28:08;;;;;;;8.38;1.80;;;;;;;;;;5005791;28;20037;-51
2021/07/28 11:30:35;;;;;;;6.53;1.80;;;;;;;;;;5001474;28;20029;-53
2021/07/28 11:33:11;;;;;;;7.63;1.83;;;;;;;;;;5023378;28;20045;-50
2021/07/28 11:35:43;;;;;;;8.15;1.80;;;;;;;;;;5003323;28;20033;-52
2021/07/28 11:38:13;;;;;;;10.32;2.05;;;;;;;;;;5005188;28;20042;-53
2021/07/28 11:40:43;;;;;;;4.03;1.70;;;;;;;;;;4997659;28;20056;-54
2021/07/28 11:43:20;;;;;;;4.32;1.65;;;;;;;;;;5004956;28;20030;-52
2021/07/28 11:45:48;;;;;;;10.95;1.70;;;;;;;;;;4997842;28;20148;-52
2021/07/28 11:48:29;;;;;;;3.38;1.52;;;;;;;;;;5002947;28;20057;-50
2021/07/28 11:50:57;;;;;;;9.02;1.60;;;;;;;;;;4998884;28;20049;-55
2021/07/28 11:53:24;;;;;;;5.85;1.55;;;;;;;;;;5006429;28;20041;-52
2021/07/28 11:55:52;;;;;;;7.65;1.83;;;;;;;;;;4992682;28;20042;-54
2021/07/28 11:58:18;;;;;;;9.73;1.45;;;;;;;;;;5004270;28;20042;-52
2021/07/28 12:00:47;;;;;;;5.93;1.60;;;;;;;;;;5001014;28;20038;-54
2021/07/28 12:03:13;;;;;;;;;;;;;;;;;;5003299;28;20054;-52
2021/07/28 12:05:56;;;;;;;5.82;1.42;;;;;;;;;;5003810;28;20014;-55
2021/07/28 12:08:31;;;;;;;6.15;1.67;;;;;;;;;;5005559;28;20038;-55
2021/07/28 12:11:02;;;;;;;5.45;1.77;;;;;;;;;;5000857;28;20034;-53
2021/07/28 12:13:38;;;;;;;8.07;1.90;;;;;;;;;;5003728;28;20126;-55
2021/07/28 12:16:05;;;;;;;3.58;1.52;;;;;;;;;;4997936;28;20046;-53
2021/07/28 12:18:44;;;;;;;8.10;1.70;;;;;;;;;;5000976;28;20070;-53
2021/07/28 12:21:11;;;;;;;8.15;1.60;;;;;;;;;;5001909;28;20034;-52
2021/07/28 12:23:50;;;;;;;9.50;1.63;;;;;;;;;;5004376;28;20048;-52
2021/07/28 12:26:18;;;;;;;9.65;1.80;;;;;;;;;;5002266;28;20041;-53
2021/07/28 12:28:48;;;;;;;5.88;1.80;;;;;;;;;;5004881;28;20046;-55
2021/07/28 12:31:24;;;;;;;11.75;2.03;;;;;;;;;;5000403;28;20038;-53
2021/07/28 12:33:51;;;;;;;5.15;1.77;;;;;;;;;;5003369;28;20064;-54
2021/07/28 12:36:25;;;;;;;7.80;2.15;;;;;;;;;;5018789;28;20164;-56
2021/07/28 12:38:53;;;;;;;11.48;1.80;;;;;;;;;;5003488;28;20056;-50
2021/07/28 12:41:19;;;;;;;7.10;2.00;;;;;;;;;;5003876;28;20060;-52
2021/07/28 12:43:48;;;;;;;6.20;1.73;;;;;;;;;;4999068;28;20686;-57
2021/07/28 12:46:14;;;;;;;8.65;1.85;;;;;;;;;;5001521;28;20041;-54
2021/07/28 12:48:42;;;;;;;6.32;1.98;;;;;;;;;;5001009;28;20076;-55
2021/07/28 12:51:09;;;;;;;5.50;1.60;;;;;;;;;;5021855;28;20037;-53
2021/07/28 12:53:35;;;;;;;7.40;2.10;;;;;;;;;;5001321;28;20082;-56
2021/07/28 12:56:05;;;;;;;7.90;1.80;;;;;;;;;;5005402;28;20034;-54
2021/07/28 12:58:32;;;;;;;4.15;1.85;;;;;;;;;;4997631;28;20038;-55
2021/07/28 13:01:00;;;;;;;6.25;1.63;;;;;;;;;;5002247;28;20042;-54
2021/07/28 13:03:27;;;;;;;6.88;1.60;;;;;;;;;;5010055;28;20056;-54
2021/07/28 13:05:57;;;;;;;4.45;1.60;;;;;;;;;;5004755;28;20054;-56
2021/07/28 13:08:23;;;;;;;7.13;1.73;;;;;;;;;;5001121;28;20089;-51
2021/07/28 13:10:50;;;;;;;10.25;2.35;;;;;;;;;;4999253;28;20041;-54
2021/07/28 13:13:18;;;;;;;9.60;1.55;;;;;;;;;;4983033;28;20046;-55
2021/07/28 13:15:45;;;;;;;7.40;1.60;;;;;;;;;;5001862;28;20050;-54
2021/07/28 13:18:12;;;;;;;4.07;1.40;;;;;;;;;;5001449;28;20042;-52
2021/07/28 13:20:39;;;;;;;6.13;1.60;;;;;;;;;;5004623;28;20057;-54
2021/07/28 13:23:06;;;;;;;5.97;1.50;;;;;;;;;;5002553;28;20025;-51
2021/07/28 13:25:33;;;;;;;38.00;5.70;;;;;;;;;;5003681;28;20110;-53
2021/07/28 13:27:59;;;;;;;8.63;1.90;;;;;;;;;;5026337;28;20041;-53
2021/07/28 13:30:27;;;;;;;5.60;1.88;;;;;;;;;;5007108;28;20046;-53
2021/07/28 13:32:53;;;;;;;7.78;1.90;;;;;;;;;;5008248;28;20181;-55
2021/07/28 13:35:24;;;;;;;5.78;2.40;;;;;;;;;;5004090;28;20103;-53
2021/07/28 13:37:51;;;;;;;6.75;2.20;;;;;;;;;;5009144;28;20033;-50
2021/07/28 13:40:18;;;;;;;5.60;2.00;;;;;;;;;;5005498;28;20037;-56
2021/07/28 13:42:45;;;;;;;5.97;2.08;;;;;;;;;;5025402;28;20041;-53
2021/07/28 13:45:13;;;;;;;13.23;2.30;;;;;;;;;;5000694;28;20042;-52
2021/07/28 13:47:43;;;;;;;4.75;2.13;;;;;;;;;;5003679;28;20038;-54
2021/07/28 13:50:10;;;;;;;6.38;2.25;;;;;;;;;;5011114;28;20045;-55
2021/07/28 13:52:37;;;;;;;3.70;1.90;;;;;;;;;;5005667;28;20041;-57
2021/07/28 13:55:07;;;;;;;5.43;2.22;;;;;;;;;;5003603;28;20038;-52
2021/07/28 13:57:33;;;;;;;7.18;2.22;;;;;;;;;;5024481;28;20123;-55
2021/07/28 14:00:00;;;;;;;5.22;1.90;;;;;;;;;;5021680;28;20042;-57
2021/07/28 14:02:27;;;;;;;5.57;1.73;;;;;;;;;;5005955;28;20069;-53
2021/07/28 14:04:55;;;;;;;4.22;1.83;;;;;;;;;;5019101;28;20041;-51
2021/07/28 14:07:24;;;;;;;;;;;;;;;;;;5005768;28;20034;-51
2021/07/28 14:09:50;;;;;;;2.70;1.58;;;;;;;;;;5001423;28;19926;-54
2021/07/28 14:12:17;;;;;;;7.43;1.60;;;;;;;;;;5002171;28;20053;-54
2021/07/28 14:14:43;;;;;;;3.03;1.55;;;;;;;;;;5006396;28;20131;-53
2021/07/28 14:17:10;;;;;;;3.50;1.40;;;;;;;;;;4998959;28;20042;-54
2021/07/28 14:19:37;;;;;;;5.88;1.70;;;;;;;;;;5003314;28;20045;-53
2021/07/28 14:22:05;;;;;;;4.75;1.38;;;;;;;;;;4999430;28;20061;-53
2021/07/28 14:24:31;;;;;;;3.17;1.60;;;;;;;;;;5019230;28;20124;-55
2021/07/28 14:27:00;;;;;;;2.30;1.20;;;;;;;;;;5003014;28;20112;-53
2021/07/28 14:29:28;;;;;;;3.53;1.35;;;;;;;;;;5022688;28;20051;-54
2021/07/28 14:31:54;;;;;;;3.45;1.30;;;;;;;;;;5000224;28;20038;-53
2021/07/28 14:34:21;;;;;;;5.95;1.55;;;;;;;;;;5003430;28;20098;-55
2021/07/28 14:36:48;;;;;;;8.20;1.30;;;;;;;;;;5003458;28;20037;-52
2021/07/28 14:39:16;;;;;;;4.20;1.30;;;;;;;;;;5008247;28;20041;-53
2021/07/28 14:41:42;;;;;;;3.95;1.35;;;;;;;;;;4998962;28;20041;-51
2021/07/28 14:44:09;;;;;;;5.95;1.33;;;;;;;;;;5007453;28;20118;-52